Time;durP1;ratioP1;P1;durP2;ratioP2;P2;SDS_P1;SDS_P2;PMS_P1;PMS_P2;Temp;Humidity;BMP_temperature;BMP_pressure;BME280_temperature;BME280_humidity;BME280_pressure;Samples;Min_cycle;Max_cycle;Signal;HPM_P1;HPM_P2
2022/07/25 00:00:34;;;;;;;11.52;7.32;;;22.90;99.90;;;;;;5116326;28;20016;-56
2022/07/25 00:03:00;;;;;;;10.75;6.70;;;22.70;99.90;;;;;;5115971;28;20031;-56
2022/07/25 00:05:26;;;;;;;8.73;6.43;;;22.70;99.90;;;;;;5116037;28;20024;-56
2022/07/25 00:07:51;;;;;;;8.90;5.90;;;22.70;99.90;;;;;;5115778;28;20119;-56
2022/07/25 00:10:17;;;;;;;10.27;5.13;;;22.80;99.90;;;;;;5115896;28;20026;-56
2022/07/25 00:12:44;;;;;;;7.65;4.95;;;22.70;99.90;;;;;;5116204;28;20054;-56
2022/07/25 00:15:10;;;;;;;8.82;4.68;;;22.70;99.90;;;;;;5115658;28;20031;-56
2022/07/25 00:17:36;;;;;;;7.30;4.10;;;22.70;99.90;;;;;;5115738;28;20062;-56
2022/07/25 00:20:02;;;;;;;5.90;3.88;;;22.80;99.90;;;;;;5115931;28;20047;-56
2022/07/25 00:22:28;;;;;;;5.93;3.22;;;22.80;99.90;;;;;;5115643;28;20031;-56
2022/07/25 00:24:54;;;;;;;5.63;3.10;;;22.60;99.90;;;;;;5116175;28;20024;-56
2022/07/25 00:27:19;;;;;;;6.68;3.13;;;22.60;99.90;;;;;;5115576;28;20550;-56
2022/07/25 00:29:45;;;;;;;8.55;3.40;;;22.60;99.90;;;;;;5115260;28;20472;-56
2022/07/25 00:32:11;;;;;;;7.70;2.92;;;22.70;99.90;;;;;;5115592;28;20026;-55
2022/07/25 00:34:37;;;;;;;4.07;2.42;;;22.70;99.90;;;;;;5115522;28;20035;-56
2022/07/25 00:37:04;;;;;;;6.88;2.90;;;22.70;99.90;;;;;;5115158;28;20051;-56
2022/07/25 00:39:30;;;;;;;6.00;2.80;;;22.60;99.90;;;;;;5115246;28;20028;-56
2022/07/25 00:41:56;;;;;;;6.65;2.95;;;22.60;99.90;;;;;;5115348;28;20054;-56
2022/07/25 00:44:27;;;;;;;7.28;3.00;;;22.60;99.90;;;;;;5114907;28;20016;-57
2022/07/25 00:46:54;;;;;;;5.03;2.60;;;22.60;99.90;;;;;;5115651;28;20134;-56
2022/07/25 00:49:21;;;;;;;6.45;2.72;;;22.50;99.90;;;;;;5115467;28;20496;-56
2022/07/25 00:51:47;;;;;;;9.43;2.78;;;22.50;99.90;;;;;;5115440;28;20012;-56
2022/07/25 00:54:13;;;;;;;7.82;2.85;;;22.60;99.90;;;;;;5115015;28;20102;-56
2022/07/25 00:56:39;;;;;;;5.93;2.60;;;22.40;99.90;;;;;;5115562;28;20404;-56
2022/07/25 00:59:05;;;;;;;5.30;2.47;;;22.40;99.90;;;;;;5114545;28;20057;-56
2022/07/25 01:01:31;;;;;;;6.85;2.75;;;22.40;99.90;;;;;;5114889;28;20557;-56
2022/07/25 01:03:57;;;;;;;6.95;2.50;;;22.30;99.90;;;;;;5115113;28;20503;-56
2022/07/25 01:06:23;;;;;;;5.55;2.70;;;22.20;99.90;;;;;;5115050;28;20032;-56
2022/07/25 01:08:49;;;;;;;7.25;2.50;;;22.20;99.90;;;;;;5115015;28;20032;-56
2022/07/25 01:11:14;;;;;;;6.05;2.63;;;22.10;99.90;;;;;;5115008;28;20028;-56
2022/07/25 01:13:41;;;;;;;5.90;2.90;;;22.20;99.90;;;;;;5114402;28;20024;-56
2022/07/25 01:16:07;;;;;;;6.75;2.42;;;22.30;99.90;;;;;;5114822;28;20028;-56
2022/07/25 01:18:33;;;;;;;7.45;2.67;;;22.20;99.90;;;;;;5115084;28;20035;-56
2022/07/25 01:21:00;;;;;;;6.18;2.83;;;22.10;99.90;;;;;;5114600;28;20028;-56
2022/07/25 01:23:26;;;;;;;5.30;2.50;;;22.10;99.90;;;;;;5114591;28;20080;-56
2022/07/25 01:25:51;;;;;;;9.23;3.08;;;22.10;99.90;;;;;;5114521;28;20391;-57
2022/07/25 01:28:17;;;;;;;7.00;2.50;;;22.10;99.90;;;;;;5114578;28;20028;-56
2022/07/25 01:30:43;;;;;;;8.18;2.85;;;22.00;99.90;;;;;;5114241;28;20053;-56
2022/07/25 01:33:09;;;;;;;7.80;2.90;;;22.10;99.90;;;;;;5114508;28;20032;-56
2022/07/25 01:35:35;;;;;;;6.47;2.70;;;22.10;99.90;;;;;;5114126;28;20388;-56
2022/07/25 01:38:01;;;;;;;7.07;2.90;;;22.00;99.90;;;;;;5114493;28;20495;-56
2022/07/25 01:40:26;;;;;;;7.82;3.00;;;22.00;99.90;;;;;;5114272;28;20032;-56
2022/07/25 01:42:52;;;;;;;7.60;2.92;;;22.10;99.90;;;;;;5113857;28;20560;-56
2022/07/25 01:45:18;;;;;;;8.18;3.08;;;22.00;99.90;;;;;;5114346;28;20064;-55
2022/07/25 01:47:43;;;;;;;5.78;2.70;;;22.00;99.90;;;;;;5114177;28;20035;-56
2022/07/25 01:50:09;;;;;;;8.00;2.97;;;22.00;99.90;;;;;;5114551;28;20377;-56
2022/07/25 01:52:36;;;;;;;8.27;2.95;;;22.00;99.90;;;;;;5114079;28;20024;-56
2022/07/25 01:55:02;;;;;;;5.97;2.63;;;22.10;99.90;;;;;;5114331;28;20028;-56
2022/07/25 01:57:28;;;;;;;6.03;2.42;;;22.10;99.90;;;;;;5113904;28;20388;-56
2022/07/25 01:59:54;;;;;;;7.10;2.80;;;22.10;99.90;;;;;;5113763;28;20027;-56
2022/07/25 02:02:19;;;;;;;5.47;2.78;;;22.10;99.90;;;;;;5114031;28;20024;-56
2022/07/25 02:04:45;;;;;;;7.47;2.90;;;22.00;99.90;;;;;;5114211;28;20055;-56
2022/07/25 02:07:11;;;;;;;7.25;3.10;;;22.00;99.90;;;;;;5113562;28;20084;-56
2022/07/25 02:09:36;;;;;;;6.95;3.15;;;21.90;99.90;;;;;;5113064;28;20050;-56
2022/07/25 02:12:03;;;;;;;8.07;3.00;;;21.90;99.90;;;;;;5095006;28;20084;-55
2022/07/25 02:14:28;;;;;;;4.93;2.83;;;22.00;99.90;;;;;;5113915;28;20081;-56
2022/07/25 02:16:54;;;;;;;8.10;3.38;;;22.00;99.90;;;;;;5113995;28;20414;-56
2022/07/25 02:19:20;;;;;;;5.55;3.05;;;22.00;99.90;;;;;;5113292;28;20047;-56
2022/07/25 02:21:45;;;;;;;8.77;3.10;;;22.00;99.90;;;;;;5113427;28;20033;-55
2022/07/25 02:24:11;;;;;;;9.43;3.38;;;22.00;99.90;;;;;;5113462;28;20019;-56
2022/07/25 02:26:37;;;;;;;7.95;3.10;;;22.00;99.90;;;;;;5113346;28;20031;-56
2022/07/25 02:29:03;;;;;;;5.70;3.08;;;22.00;99.90;;;;;;5113194;28;20020;-56
2022/07/25 02:31:28;;;;;;;6.93;3.30;;;22.00;99.90;;;;;;5113213;28;20120;-56
2022/07/25 02:33:54;;;;;;;6.55;2.92;;;22.00;99.90;;;;;;5113287;28;20065;-56
2022/07/25 02:36:20;;;;;;;7.47;3.50;;;21.90;99.90;;;;;;5112893;28;20037;-56
2022/07/25 02:38:45;;;;;;;7.95;3.30;;;22.00;99.90;;;;;;5113342;28;20027;-56
2022/07/25 02:41:11;;;;;;;8.30;3.70;;;22.00;99.90;;;;;;5112867;28;20023;-56
2022/07/25 02:43:37;;;;;;;5.78;3.10;;;22.00;99.90;;;;;;5112816;28;20024;-55
2022/07/25 02:46:03;;;;;;;8.23;3.10;;;22.00;99.90;;;;;;5113165;28;20059;-55
2022/07/25 02:48:28;;;;;;;6.97;3.63;;;22.00;99.90;;;;;;5113084;28;20031;-56
2022/07/25 02:50:54;;;;;;;5.25;3.20;;;22.00;99.90;;;;;;5112801;28;20051;-56
2022/07/25 02:53:20;;;;;;;8.68;3.58;;;22.00;99.90;;;;;;5113570;28;20031;-56
2022/07/25 02:55:45;;;;;;;5.20;3.10;;;22.00;99.90;;;;;;5112400;28;20047;-56
2022/07/25 02:58:11;;;;;;;5.85;3.33;;;22.00;99.90;;;;;;5112873;28;20479;-55
2022/07/25 03:00:37;;;;;;;6.43;3.60;;;22.00;99.90;;;;;;5094439;28;20084;-56
2022/07/25 03:03:03;;;;;;;7.55;3.38;;;22.00;99.90;;;;;;5112763;28;20027;-56
2022/07/25 03:05:28;;;;;;;6.25;3.35;;;21.90;99.90;;;;;;5112964;28;20467;-56
2022/07/25 03:07:54;;;;;;;6.70;3.67;;;22.00;99.90;;;;;;5094218;28;20039;-56
2022/07/25 03:10:20;;;;;;;8.68;3.60;;;22.00;99.90;;;;;;5111828;28;20024;-56
2022/07/25 03:12:46;;;;;;;7.30;3.80;;;22.00;99.90;;;;;;5112564;28;20023;-56
2022/07/25 03:15:13;;;;;;;7.35;3.90;;;21.90;99.90;;;;;;5112645;28;20074;-55
2022/07/25 03:17:39;;;;;;;10.32;4.32;;;21.90;99.90;;;;;;5112550;28;20425;-56
2022/07/25 03:20:06;;;;;;;8.48;4.07;;;21.90;99.90;;;;;;5112591;28;20080;-56
2022/07/25 03:22:32;;;;;;;9.50;4.10;;;21.90;99.90;;;;;;5112393;28;20032;-56
2022/07/25 03:24:58;;;;;;;10.55;4.47;;;21.90;99.90;;;;;;5112258;28;20106;-57
2022/07/25 03:27:23;;;;;;;10.88;4.70;;;21.80;99.90;;;;;;5112441;28;20541;-57
2022/07/25 03:29:49;;;;;;;12.35;4.72;;;21.80;99.90;;;;;;5112189;28;20161;-57
2022/07/25 03:32:15;;;;;;;6.95;4.70;;;21.80;99.90;;;;;;5112445;28;20503;-57
2022/07/25 03:34:41;;;;;;;8.52;4.88;;;21.80;99.90;;;;;;5112353;28;20031;-57
2022/07/25 03:37:06;;;;;;;7.50;4.35;;;21.80;99.90;;;;;;5112362;28;20194;-57
2022/07/25 03:39:32;;;;;;;11.32;5.30;;;21.80;99.90;;;;;;5112181;28;20027;-57
2022/07/25 03:41:58;;;;;;;10.57;5.15;;;21.80;99.90;;;;;;5112440;28;20019;-57
2022/07/25 03:44:24;;;;;;;8.52;4.97;;;21.70;99.90;;;;;;5112493;28;20895;-57
2022/07/25 03:46:52;;;;;;;8.73;4.47;;;21.80;99.90;;;;;;5112544;28;20084;-56
2022/07/25 03:49:18;;;;;;;7.90;4.53;;;21.70;99.90;;;;;;5112452;28;20027;-57
2022/07/25 03:51:44;;;;;;;6.70;4.35;;;21.60;99.90;;;;;;5112427;28;20536;-57
2022/07/25 03:54:12;;;;;;;10.52;4.32;;;21.70;99.90;;;;;;5112151;28;20080;-57
2022/07/25 03:56:43;;;;;;;9.07;4.32;;;21.60;99.90;;;;;;5112180;28;20028;-57
2022/07/25 03:59:11;;;;;;;7.50;4.50;;;21.60;99.90;;;;;;5112798;28;20464;-57
2022/07/25 04:01:38;;;;;;;7.57;4.15;;;21.50;99.90;;;;;;5111800;28;20023;-57
2022/07/25 04:04:04;;;;;;;6.30;3.83;;;21.50;99.90;;;;;;5112439;28;20031;-57
2022/07/25 04:06:30;;;;;;;6.05;3.65;;;21.50;99.90;;;;;;5112174;28;20035;-57
2022/07/25 04:08:57;;;;;;;6.43;3.90;;;21.50;99.90;;;;;;5111878;28;20165;-56
2022/07/25 04:11:23;;;;;;;6.80;3.80;;;21.50;99.90;;;;;;5112158;28;20087;-56
2022/07/25 04:13:49;;;;;;;8.35;3.78;;;21.40;99.90;;;;;;5112512;28;20105;-57
2022/07/25 04:16:15;;;;;;;8.13;3.78;;;21.40;99.90;;;;;;5093783;28;20118;-57
2022/07/25 04:18:40;;;;;;;8.85;3.58;;;21.30;99.90;;;;;;5093782;28;20023;-57
2022/07/25 04:21:07;;;;;;;9.48;3.85;;;21.30;99.90;;;;;;5111794;28;20501;-57
2022/07/25 04:23:33;;;;;;;6.10;3.53;;;21.20;99.90;;;;;;5111566;28;20027;-57
2022/07/25 04:25:59;;;;;;;6.72;3.70;;;21.20;99.90;;;;;;5112400;28;20395;-57
2022/07/25 04:28:25;;;;;;;7.47;3.72;;;21.20;99.90;;;;;;5111914;28;20042;-57
2022/07/25 04:30:51;;;;;;;9.18;3.70;;;21.20;99.90;;;;;;5112113;28;20032;-57
2022/07/25 04:33:18;;;;;;;9.65;3.78;;;21.10;99.90;;;;;;5113455;28;20392;-57
2022/07/25 04:35:44;;;;;;;6.07;3.50;;;21.10;99.90;;;;;;5115403;28;20015;-57
2022/07/25 04:38:10;;;;;;;6.63;3.63;;;21.00;99.90;;;;;;5115004;28;20483;-57
2022/07/25 04:40:37;;;;;;;6.05;3.38;;;21.00;99.90;;;;;;5115906;28;20103;-57
2022/07/25 04:43:04;;;;;;;9.60;3.72;;;20.90;99.90;;;;;;5115373;28;20106;-57
2022/07/25 04:45:30;;;;;;;6.15;3.47;;;20.90;99.90;;;;;;5115366;28;20026;-57
2022/07/25 04:47:56;;;;;;;7.43;3.33;;;20.80;99.90;;;;;;5115093;28;20043;-57
2022/07/25 04:50:22;;;;;;;6.65;3.38;;;20.80;99.90;;;;;;5115303;28;20407;-56
2022/07/25 04:52:47;;;;;;;6.15;3.67;;;20.70;99.90;;;;;;5115105;28;20034;-57
2022/07/25 04:55:13;;;;;;;5.95;3.28;;;20.60;99.90;;;;;;5115219;28;20019;-56
2022/07/25 04:57:39;;;;;;;7.13;3.90;;;20.60;99.90;;;;;;5115151;28;20080;-56
2022/07/25 05:00:07;;;;;;;6.45;3.40;;;20.60;99.90;;;;;;5115078;28;20023;-57
2022/07/25 05:02:33;;;;;;;6.82;3.40;;;20.70;99.90;;;;;;5114932;28;20034;-57
2022/07/25 05:04:59;;;;;;;5.03;3.30;;;20.70;99.90;;;;;;5114769;28;20476;-56
2022/07/25 05:07:25;;;;;;;6.18;3.20;;;20.80;99.90;;;;;;5114706;28;20028;-57
2022/07/25 05:09:51;;;;;;;10.15;4.30;;;20.80;99.90;;;;;;5115009;28;20475;-57
2022/07/25 05:12:16;;;;;;;7.07;4.18;;;20.80;99.90;;;;;;5114677;28;20035;-56
2022/07/25 05:14:43;;;;;;;8.88;4.63;;;20.80;99.90;;;;;;5115148;28;20016;-56
2022/07/25 05:17:10;;;;;;;9.60;5.35;;;20.80;99.90;;;;;;5114801;28;20039;-57
2022/07/25 05:19:36;;;;;;;12.50;6.03;;;20.90;99.90;;;;;;5114401;28;20023;-57
2022/07/25 05:22:01;;;;;;;9.43;5.90;;;20.90;99.90;;;;;;5114680;28;20084;-57
2022/07/25 05:24:27;;;;;;;11.30;6.30;;;20.90;99.90;;;;;;5115144;28;20058;-57
2022/07/25 05:26:53;;;;;;;13.25;7.55;;;20.90;99.90;;;;;;5114496;28;20468;-57
2022/07/25 05:29:19;;;;;;;10.32;7.07;;;20.90;99.90;;;;;;5114803;28;20399;-57
2022/07/25 05:31:45;;;;;;;12.45;7.15;;;20.90;99.90;;;;;;5114405;28;20476;-56
2022/07/25 05:34:10;;;;;;;12.57;7.05;;;20.90;99.90;;;;;;5114126;28;20548;-57
2022/07/25 05:36:36;;;;;;;11.98;7.70;;;20.90;99.90;;;;;;5114312;28;20486;-56
2022/07/25 05:39:02;;;;;;;12.45;7.30;;;21.00;99.90;;;;;;5114367;28;20022;-57
2022/07/25 05:41:28;;;;;;;12.38;7.45;;;21.00;99.90;;;;;;5096166;28;20468;-57
2022/07/25 05:43:53;;;;;;;12.95;8.00;;;21.10;99.90;;;;;;5095601;28;20023;-56
2022/07/25 05:46:19;;;;;;;13.32;7.32;;;21.00;99.90;;;;;;5113828;28;20063;-56
2022/07/25 05:48:45;;;;;;;12.57;7.82;;;21.10;99.90;;;;;;5113691;28;20027;-57
2022/07/25 05:51:11;;;;;;;14.95;8.45;;;21.10;99.90;;;;;;5114116;28;20096;-56
2022/07/25 05:53:37;;;;;;;13.05;8.25;;;21.20;99.90;;;;;;5113924;28;20028;-57
2022/07/25 05:56:03;;;;;;;13.30;8.82;;;21.20;99.90;;;;;;5114049;28;20512;-57
2022/07/25 05:58:29;;;;;;;14.70;8.40;;;21.20;99.90;;;;;;5101913;28;20058;-57
2022/07/25 06:00:56;;;;;;;14.55;8.90;;;21.20;99.90;;;;;;5093376;28;20020;-57
2022/07/25 06:03:21;;;;;;;16.10;8.70;;;21.30;99.90;;;;;;5093190;28;20148;-57
2022/07/25 06:05:47;;;;;;;12.07;7.90;;;21.30;99.90;;;;;;5093954;28;20536;-57
2022/07/25 06:08:14;;;;;;;13.82;8.50;;;21.40;99.90;;;;;;5093298;28;20032;-57
2022/07/25 06:10:41;;;;;;;15.43;8.02;;;21.60;99.90;;;;;;5093447;28;20020;-57
2022/07/25 06:13:07;;;;;;;16.52;8.48;;;21.60;99.90;;;;;;5093306;28;20035;-57
2022/07/25 06:15:33;;;;;;;13.00;8.02;;;21.70;99.90;;;;;;5092896;28;20059;-57
2022/07/25 06:17:59;;;;;;;12.32;7.60;;;21.80;99.90;;;;;;5093070;28;20052;-57
2022/07/25 06:20:24;;;;;;;11.80;7.53;;;21.80;99.90;;;;;;5093192;28;20112;-57
2022/07/25 06:22:50;;;;;;;12.60;7.97;;;21.90;99.90;;;;;;5093601;28;20035;-57
2022/07/25 06:25:16;;;;;;;11.65;7.25;;;21.90;99.90;;;;;;5093224;28;20115;-57
2022/07/25 06:27:42;;;;;;;11.63;7.50;;;22.00;99.90;;;;;;5092858;28;20067;-57
2022/07/25 06:30:09;;;;;;;10.88;6.88;;;22.10;99.90;;;;;;5093182;28;20408;-57
2022/07/25 06:32:35;;;;;;;13.60;7.40;;;22.20;99.90;;;;;;5092486;28;20034;-57
2022/07/25 06:35:01;;;;;;;11.38;7.25;;;22.30;99.90;;;;;;5092838;28;20047;-57
2022/07/25 06:37:26;;;;;;;13.20;7.63;;;22.40;99.90;;;;;;5108155;28;20046;-58
2022/07/25 06:39:52;;;;;;;9.60;7.70;;;22.50;99.90;;;;;;5113612;28;20032;-57
2022/07/25 06:42:18;;;;;;;12.27;7.85;;;22.60;99.90;;;;;;5112620;28;20031;-57
2022/07/25 06:44:44;;;;;;;10.45;6.95;;;22.70;99.90;;;;;;5104634;28;20487;-57
2022/07/25 06:47:11;;;;;;;14.20;7.63;;;22.70;99.90;;;;;;5112831;28;20047;-57
2022/07/25 06:49:40;;;;;;;13.00;7.05;;;22.90;99.90;;;;;;5098573;28;20027;-57
2022/07/25 06:52:06;;;;;;;12.80;7.35;;;23.10;99.90;;;;;;5093076;28;20111;-57
2022/07/25 06:54:32;;;;;;;12.60;6.97;;;23.20;99.90;;;;;;5092545;28;20059;-57
2022/07/25 06:56:58;;;;;;;16.40;6.93;;;23.20;99.90;;;;;;5092332;28;20135;-57
2022/07/25 06:59:24;;;;;;;12.88;7.20;;;23.30;99.90;;;;;;5092342;28;20020;-57
2022/07/25 07:01:50;;;;;;;10.32;6.18;;;23.40;99.90;;;;;;5092172;28;20035;-55
2022/07/25 07:04:16;;;;;;;10.02;5.88;;;23.70;99.90;;;;;;5092554;28;20032;-57
2022/07/25 07:06:42;;;;;;;12.60;6.07;;;23.70;99.90;;;;;;5092199;28;20066;-57
2022/07/25 07:09:08;;;;;;;8.75;4.57;;;23.90;99.90;;;;;;5092293;28;20024;-57
2022/07/25 07:11:34;;;;;;;7.82;4.22;;;24.00;99.90;;;;;;5074119;28;20028;-57
2022/07/25 07:14:01;;;;;;;6.88;3.85;;;24.10;99.90;;;;;;5092587;28;20008;-57
2022/07/25 07:16:28;;;;;;;10.52;4.00;;;24.10;99.90;;;;;;5091094;28;20043;-57
2022/07/25 07:18:54;;;;;;;7.05;4.13;;;24.40;99.90;;;;;;5073995;28;20020;-57
2022/07/25 07:21:20;;;;;;;8.68;4.55;;;24.40;99.90;;;;;;5092244;28;20028;-56
2022/07/25 07:23:46;;;;;;;6.75;3.97;;;24.60;99.90;;;;;;5092385;28;20039;-57
2022/07/25 07:26:11;;;;;;;9.82;4.50;;;24.70;99.90;;;;;;5091848;28;20036;-57
2022/07/25 07:28:37;;;;;;;7.68;3.63;;;24.70;99.90;;;;;;5091981;28;20099;-57
2022/07/25 07:31:03;;;;;;;7.55;3.72;;;24.90;99.90;;;;;;5091835;28;20477;-57
2022/07/25 07:33:29;;;;;;;6.07;3.60;;;24.80;99.90;;;;;;5092023;28;20116;-56
2022/07/25 07:35:55;;;;;;;6.90;3.05;;;24.80;99.90;;;;;;5091974;28;20044;-57
2022/07/25 07:38:22;;;;;;;5.97;3.03;;;25.40;99.90;;;;;;5082339;28;20238;-60
2022/07/25 07:40:48;;;;;;;7.30;2.97;;;25.90;99.90;;;;;;5091922;28;20036;-57
2022/07/25 07:43:14;;;;;;;6.60;3.35;;;25.90;99.90;;;;;;5092243;28;20021;-57
2022/07/25 07:45:41;;;;;;;5.93;3.05;;;26.10;99.90;;;;;;5091665;28;20024;-57
2022/07/25 07:48:07;;;;;;;4.63;3.13;;;25.90;99.90;;;;;;5092336;28;20546;-57
2022/07/25 07:50:33;;;;;;;5.85;3.20;;;25.90;99.90;;;;;;5091707;28;20024;-57
2022/07/25 07:52:59;;;;;;;5.28;3.05;;;26.20;99.90;;;;;;5091837;28;20024;-57
2022/07/25 07:55:44;;;;;;;5.78;3.25;;;27.80;99.90;;;;;;5091234;28;20028;-57
2022/07/25 07:58:14;;;;;;;4.72;3.10;;;28.40;99.60;;;;;;5089724;28;20043;-57
2022/07/25 08:00:42;;;;;;;6.32;3.50;;;27.70;99.80;;;;;;5090341;28;20032;-57
2022/07/25 08:03:08;;;;;;;6.40;3.35;;;27.70;99.90;;;;;;5091134;28;20508;-57
2022/07/25 08:05:40;;;;;;;5.65;3.33;;;27.70;99.50;;;;;;5091100;28;20389;-57
2022/07/25 08:08:07;;;;;;;4.90;2.83;;;27.20;99.90;;;;;;5089209;28;20058;-57
2022/07/25 08:10:35;;;;;;;4.70;2.65;;;27.00;99.90;;;;;;5090694;28;20019;-57
2022/07/25 08:13:12;;;;;;;5.13;2.60;;;26.70;99.90;;;;;;5093092;28;20544;-57
2022/07/25 08:15:37;;;;;;;6.65;2.90;;;26.60;99.90;;;;;;5085971;28;20030;-57
2022/07/25 08:18:03;;;;;;;6.13;2.92;;;26.60;99.90;;;;;;5094979;28;20024;-57
2022/07/25 08:20:29;;;;;;;6.22;2.72;;;28.30;99.60;;;;;;5095481;28;20040;-57
2022/07/25 08:22:55;;;;;;;4.90;2.40;;;29.30;97.80;;;;;;5094939;28;20023;-57
2022/07/25 08:25:21;;;;;;;6.43;2.88;;;30.50;96.40;;;;;;5094971;28;20446;-57
2022/07/25 08:27:47;;;;;;;5.95;2.60;;;31.00;95.30;;;;;;5091620;28;20522;-56
2022/07/25 08:30:15;;;;;;;4.43;2.42;;;30.20;95.30;;;;;;5094777;28;20377;-57
2022/07/25 08:32:52;;;;;;;6.38;2.80;;;29.30;95.00;;;;;;5076684;28;20039;-57
2022/07/25 08:35:19;;;;;;;5.50;2.45;;;28.40;96.00;;;;;;5092278;28;20046;-58
2022/07/25 08:37:46;;;;;;;4.15;2.35;;;28.30;96.80;;;;;;5093968;28;20040;-57
2022/07/25 08:40:14;;;;;;;4.30;2.50;;;28.40;96.80;;;;;;5094505;28;20035;-57
2022/07/25 08:42:40;;;;;;;4.28;2.22;;;28.50;96.80;;;;;;5094043;28;20028;-57
2022/07/25 08:45:07;;;;;;;5.18;2.65;;;29.10;96.30;;;;;;5094399;28;20032;-57
2022/07/25 08:47:35;;;;;;;6.40;3.10;;;30.40;95.30;;;;;;5076147;28;20028;-57
2022/07/25 08:50:07;;;;;;;4.28;2.17;;;31.60;93.60;;;;;;5091787;28;20016;-57
2022/07/25 08:52:34;;;;;;;7.13;2.50;;;31.10;91.90;;;;;;5093363;28;20088;-58
2022/07/25 08:55:01;;;;;;;6.82;2.83;;;30.30;91.60;;;;;;5092989;28;20039;-58
2022/07/25 08:57:27;;;;;;;4.82;2.38;;;29.40;91.90;;;;;;5092732;28;20020;-57
2022/07/25 08:59:57;;;;;;;5.43;2.67;;;29.20;93.30;;;;;;5094503;28;20560;-57
2022/07/25 09:02:23;;;;;;;5.20;2.72;;;29.20;93.30;;;;;;5093491;28;20028;-58
2022/07/25 09:04:49;;;;;;;4.07;2.42;;;30.80;92.30;;;;;;5076100;28;20404;-57
2022/07/25 09:07:15;;;;;;;5.32;2.28;;;32.10;91.40;;;;;;5093291;28;20047;-57
2022/07/25 09:09:43;;;;;;;3.70;2.05;;;34.60;87.20;;;;;;5094083;28;20391;-57
2022/07/25 09:12:08;;;;;;;4.65;2.38;;;34.70;84.50;;;;;;5094108;28;20469;-57
2022/07/25 09:14:42;;;;;;;3.28;2.20;;;34.90;84.10;;;;;;5093140;28;20031;-58
2022/07/25 09:17:08;;;;;;;2.85;1.58;;;36.20;82.90;;;;;;5091839;28;20062;-58
2022/07/25 09:19:34;;;;;;;5.25;1.80;;;36.00;78.60;;;;;;5091994;28;20055;-58
2022/07/25 09:22:02;;;;;;;2.78;1.50;;;36.60;77.50;;;;;;5075554;28;20107;-57
2022/07/25 09:24:28;;;;;;;2.97;1.38;;;35.90;79.30;;;;;;5092542;28;20031;-58
2022/07/25 09:26:57;;;;;;;2.63;1.42;;;36.30;80.00;;;;;;5093205;28;20024;-57
2022/07/25 09:29:26;;;;;;;3.05;1.35;;;36.80;78.10;;;;;;5092033;28;20602;-58
2022/07/25 09:31:54;;;;;;;3.40;1.40;;;36.40;77.70;;;;;;5094071;28;20038;-58
2022/07/25 09:34:40;;;;;;;2.92;1.30;;;37.00;78.20;;;;;;5092391;28;20035;-58
2022/07/25 09:37:08;;;;;;;3.08;1.58;;;37.00;76.50;;;;;;5103751;28;20043;-56
2022/07/25 09:39:45;;;;;;;2.38;1.55;;;37.40;76.20;;;;;;5112960;28;20012;-56
2022/07/25 09:42:31;;;;;;;4.03;1.52;;;38.50;76.00;;;;;;5111814;28;20026;-56
2022/07/25 09:44:59;;;;;;;4.50;1.50;;;38.50;73.00;;;;;;5113240;28;20026;-56
2022/07/25 09:47:25;;;;;;;4.13;1.75;;;37.10;76.30;;;;;;5112529;28;20464;-56
2022/07/25 09:49:51;;;;;;;3.20;1.60;;;36.50;76.30;;;;;;5112489;28;20107;-58
2022/07/25 09:52:17;;;;;;;3.03;1.40;;;35.30;75.40;;;;;;5112449;28;20031;-58
2022/07/25 09:54:43;;;;;;;3.95;1.60;;;34.40;79.10;;;;;;5112946;28;20035;-58
2022/07/25 09:57:09;;;;;;;3.13;1.58;;;35.40;79.60;;;;;;5112826;28;20086;-57
2022/07/25 09:59:36;;;;;;;4.40;1.80;;;39.00;72.80;;;;;;5111845;28;20020;-58
2022/07/25 10:02:12;;;;;;;4.07;2.03;;;40.20;70.80;;;;;;5112696;28;20028;-57
2022/07/25 10:04:57;;;;;;;4.45;2.33;;;39.10;70.40;;;;;;5112392;28;20029;-57
2022/07/25 10:07:23;;;;;;;4.93;2.58;;;38.70;71.20;;;;;;5111498;28;20028;-57
2022/07/25 10:09:54;;;;;;;5.00;2.55;;;37.00;74.30;;;;;;5112057;28;20020;-57
2022/07/25 10:12:21;;;;;;;7.93;3.15;;;36.70;74.90;;;;;;5111875;28;20016;-57
2022/07/25 10:15:08;;;;;;;4.88;2.80;;;36.60;75.40;;;;;;5112062;28;20031;-56
2022/07/25 10:17:36;;;;;;;6.43;2.72;;;35.60;76.20;;;;;;5109274;28;20031;-57
2022/07/25 10:20:05;;;;;;;4.93;2.80;;;35.40;76.80;;;;;;5112415;28;20019;-56
2022/07/25 10:22:43;;;;;;;5.28;2.58;;;33.90;77.80;;;;;;5112276;28;20027;-57
2022/07/25 10:25:18;;;;;;;6.55;2.50;;;33.20;80.60;;;;;;5105276;28;20035;-57
2022/07/25 10:27:49;;;;;;;5.38;2.13;;;33.70;79.60;;;;;;5110855;28;20131;-57
2022/07/25 10:30:20;;;;;;;4.30;1.92;;;33.90;79.80;;;;;;5110423;28;20026;-57
2022/07/25 10:32:59;;;;;;;4.72;2.45;;;34.50;78.80;;;;;;5112171;28;20027;-57
2022/07/25 10:35:26;;;;;;;6.25;2.22;;;34.40;80.20;;;;;;5110191;28;20015;-56
2022/07/25 10:37:53;;;;;;;7.50;2.35;;;35.00;79.50;;;;;;5103738;28;20052;-58
2022/07/25 10:40:36;;;;;;;6.53;2.30;;;35.50;76.50;;;;;;5101014;28;20024;-56
2022/07/25 10:43:13;;;;;;;5.93;2.40;;;35.10;77.20;;;;;;5085622;28;20101;-57
2022/07/25 10:45:41;;;;;;;4.63;2.20;;;35.40;78.70;;;;;;5095485;28;20144;-57
2022/07/25 10:48:20;;;;;;;4.15;1.70;;;35.40;76.40;;;;;;5102019;28;20561;-57
2022/07/25 10:50:51;;;;;;;4.60;1.73;;;34.40;77.80;;;;;;5103341;28;20024;-58
2022/07/25 10:53:29;;;;;;;4.95;1.88;;;33.90;78.10;;;;;;5102852;28;20104;-57
2022/07/25 10:55:57;;;;;;;3.00;1.73;;;33.40;80.90;;;;;;5099618;28;20492;-57
2022/07/25 10:58:22;;;;;;;4.72;1.77;;;33.80;79.80;;;;;;5103019;28;20110;-57
2022/07/25 11:00:49;;;;;;;4.03;1.77;;;34.20;79.90;;;;;;5102017;28;20111;-57
2022/07/25 11:03:15;;;;;;;6.30;2.05;;;34.10;79.90;;;;;;5099637;28;20019;-57
2022/07/25 11:05:47;;;;;;;4.80;1.90;;;33.90;80.00;;;;;;5072555;28;20407;-57
2022/07/25 11:08:13;;;;;;;3.57;1.70;;;33.40;80.20;;;;;;5092295;28;20036;-57
2022/07/25 11:10:39;;;;;;;4.68;1.70;;;33.30;80.90;;;;;;5102437;28;20036;-57
2022/07/25 11:13:09;;;;;;;3.90;1.58;;;34.00;80.40;;;;;;5100341;28;20375;-58
2022/07/25 11:15:35;;;;;;;5.70;1.92;;;33.90;80.10;;;;;;5092396;28;20476;-57
2022/07/25 11:18:00;;;;;;;3.83;1.50;;;33.90;78.70;;;;;;5090662;28;20042;-57
2022/07/25 11:20:27;;;;;;;4.45;1.80;;;33.80;79.70;;;;;;5105960;28;20152;-57
2022/07/25 11:22:54;;;;;;;6.30;2.00;;;33.80;79.60;;;;;;5111739;28;20034;-57
2022/07/25 11:25:22;;;;;;;2.97;1.50;;;33.50;79.80;;;;;;5093698;28;20015;-56
2022/07/25 11:27:59;;;;;;;3.95;1.80;;;32.80;81.40;;;;;;5111050;28;20035;-56
2022/07/25 11:30:29;;;;;;;5.25;2.05;;;32.80;81.60;;;;;;5102150;28;20058;-56
2022/07/25 11:33:00;;;;;;;4.25;1.80;;;32.50;82.50;;;;;;5101970;28;20028;-56
2022/07/25 11:35:30;;;;;;;3.78;1.85;;;32.10;82.80;;;;;;5099216;28;20019;-57
2022/07/25 11:37:58;;;;;;;3.70;1.70;;;32.50;82.70;;;;;;5102087;28;20058;-56
2022/07/25 11:40:24;;;;;;;3.85;1.83;;;32.60;82.40;;;;;;5089455;28;20408;-56
2022/07/25 11:43:00;;;;;;;4.53;1.75;;;31.90;83.10;;;;;;5074561;28;20036;-57
2022/07/25 11:45:30;;;;;;;5.22;1.83;;;31.80;83.60;;;;;;5107360;28;20451;-57
2022/07/25 11:48:06;;;;;;;3.70;1.70;;;32.40;83.50;;;;;;5100991;28;20449;-57
2022/07/25 11:50:33;;;;;;;2.67;1.73;;;32.60;82.80;;;;;;5091112;28;20465;-56
2022/07/25 11:53:04;;;;;;;5.63;1.80;;;31.60;84.30;;;;;;5104794;28;20035;-56
2022/07/25 11:55:35;;;;;;;4.50;1.58;;;31.10;85.40;;;;;;5096877;28;20498;-57
2022/07/25 11:58:02;;;;;;;5.60;1.80;;;30.50;86.40;;;;;;5113019;28;20024;-56
2022/07/25 12:00:29;;;;;;;4.25;1.70;;;30.00;88.00;;;;;;5102675;28;20042;-56
2022/07/25 12:03:09;;;;;;;5.38;1.70;;;30.20;87.70;;;;;;5091450;28;20031;-57
2022/07/25 12:05:34;;;;;;;4.85;1.80;;;29.80;88.50;;;;;;5104002;28;20028;-57
2022/07/25 12:08:18;;;;;;;4.55;1.45;;;30.40;88.30;;;;;;5083512;28;20032;-56
2022/07/25 12:10:50;;;;;;;7.82;1.90;;;30.70;87.30;;;;;;5103269;28;20039;-56
2022/07/25 12:13:27;;;;;;;4.68;1.63;;;30.20;88.80;;;;;;5105085;28;20028;-57
2022/07/25 12:15:55;;;;;;;3.65;1.42;;;30.40;89.20;;;;;;5110167;28;20062;-57
2022/07/25 12:18:21;;;;;;;4.93;1.40;;;30.50;88.70;;;;;;5114683;28;20038;-57
2022/07/25 12:20:46;;;;;;;3.95;1.42;;;30.50;89.30;;;;;;5114332;28;20032;-57
2022/07/25 12:23:12;;;;;;;6.43;1.58;;;30.70;87.90;;;;;;5105979;28;20032;-57
2022/07/25 12:25:41;;;;;;;5.72;1.98;;;31.20;88.60;;;;;;5103270;28;20404;-57
2022/07/25 12:28:09;;;;;;;3.72;1.75;;;31.20;87.50;;;;;;5103514;28;20440;-57
2022/07/25 12:30:36;;;;;;;6.80;1.90;;;31.30;87.20;;;;;;5084275;28;20089;-57
2022/07/25 12:33:02;;;;;;;4.65;1.67;;;31.20;88.10;;;;;;5105934;28;20016;-57
2022/07/25 12:35:28;;;;;;;5.53;1.60;;;30.80;89.20;;;;;;5097209;28;20374;-57
2022/07/25 12:37:54;;;;;;;7.15;1.90;;;30.80;89.70;;;;;;5113968;28;20423;-58
2022/07/25 12:40:20;;;;;;;5.32;1.65;;;30.90;89.20;;;;;;5114469;28;20020;-57
2022/07/25 12:42:47;;;;;;;3.50;1.48;;;30.50;90.00;;;;;;5114122;28;20028;-58
2022/07/25 12:45:14;;;;;;;9.55;1.60;;;30.30;90.50;;;;;;5115065;28;20035;-58